Beersel, Belgium
Current Conditions -  °F | °C
As of 10:20 PM on Saturday 22 Nov 2014 (Local Time) from EBBR Reporting Station
Clear Clear  
Wind Chill: 52°   Ceiling: Unl
Heat Index: 52°   Visibility: 6mi
Dew Point: 46°   Wind: 5mph
Humidity: 82%   Direction: 190°S
Pressure: 30.03"   Gusts: NA
Location:  50.77°N, 4.3°E
Report Text: EBBR 222120Z 19004KT 150V210 CAVOK 11/08 Q1017 NOSIG
Loading
Personal Weather Stations






























Interactive Weather Map New forecast layout! Learn more

10-Day Weather Forecast

Advertisements
Track Severe Weather on mobile